createdAt,value
2022-08-28T00:01:30.319Z,100468.31
2022-08-28T00:04:00.910Z,100474.78
2022-08-28T00:06:30.467Z,100469.41
2022-08-28T00:08:59.895Z,100471.56
2022-08-28T00:11:31.946Z,100474.25
2022-08-28T00:14:02.940Z,100478.00
2022-08-28T00:16:32.733Z,100480.72
2022-08-28T00:19:02.321Z,100472.63
2022-08-28T00:21:32.253Z,100476.94
2022-08-28T00:24:01.821Z,100475.03
2022-08-28T00:26:46.401Z,100480.13
2022-08-28T00:29:15.834Z,100485.81
2022-08-28T00:31:45.534Z,100484.22
2022-08-28T00:34:15.042Z,100486.09
2022-08-28T00:36:44.487Z,100479.38
2022-08-28T00:39:13.937Z,100475.31
2022-08-28T00:41:50.354Z,100473.75
2022-08-28T00:44:27.369Z,100478.59
2022-08-28T00:46:57.657Z,100480.72
2022-08-28T00:49:29.025Z,100474.31
2022-08-28T00:52:11.784Z,100480.47
2022-08-28T00:54:59.683Z,100478.31
2022-08-28T00:57:33.795Z,100466.72
2022-08-28T01:00:03.262Z,100468.88
2022-08-28T01:02:32.778Z,100465.34
2022-08-28T01:05:02.252Z,100464.00
2022-08-28T01:07:31.806Z,100462.13
2022-08-28T01:10:01.250Z,100462.94
2022-08-28T01:12:33.322Z,100469.97
2022-08-28T01:15:03.746Z,100462.41
2022-08-28T01:17:35.177Z,100461.88
2022-08-28T01:20:09.338Z,100466.97
2022-08-28T01:22:40.467Z,100470.47
2022-08-28T01:25:13.937Z,100478.03
2022-08-28T01:27:44.106Z,100470.75
2022-08-28T01:30:15.444Z,100469.13
2022-08-28T01:32:47.272Z,100472.34
2022-08-28T01:35:18.293Z,100473.44
2022-08-28T01:37:47.504Z,100480.16
2022-08-28T01:40:23.111Z,100479.09
2022-08-28T01:42:52.952Z,100475.34
2022-08-28T01:45:22.994Z,100478.81
2022-08-28T01:47:52.487Z,100480.41
2022-08-28T01:50:23.054Z,100475.31
2022-08-28T01:52:52.501Z,100478.81
2022-08-28T01:55:24.526Z,100476.69
2022-08-28T01:57:56.525Z,100479.38
2022-08-28T02:00:27.647Z,100482.84
2022-08-28T02:02:58.373Z,100477.47
2022-08-28T02:05:28.407Z,100479.66
2022-08-28T02:07:57.837Z,100480.97
2022-08-28T02:10:31.102Z,100480.41
2022-08-28T02:13:00.848Z,100485.78
2022-08-28T02:15:31.033Z,100481.75
2022-08-28T02:18:00.566Z,100478.25
2022-08-28T02:20:30.479Z,100477.44
2022-08-28T02:23:00.438Z,100472.59
2022-08-28T02:25:32.615Z,100476.34
2022-08-28T02:28:02.077Z,100486.63
2022-08-28T02:30:31.643Z,100481.78
2022-08-28T02:33:01.249Z,100484.75
2022-08-28T02:35:31.305Z,100486.34
2022-08-28T02:38:01.093Z,100480.94
2022-08-28T02:40:33.234Z,100488.47
2022-08-28T02:43:02.884Z,100473.41
2022-08-28T02:45:32.768Z,100478.03
2022-08-28T02:48:02.223Z,100480.16
2022-08-28T02:50:32.538Z,100474.53
2022-08-28T02:53:02.035Z,100469.13
2022-08-28T02:55:34.433Z,100473.66
2022-08-28T02:58:03.865Z,100468.56
2022-08-28T03:00:33.909Z,100474.47
2022-08-28T03:03:03.728Z,100473.13
2022-08-28T03:05:33.196Z,100468.28
2022-08-28T03:08:02.752Z,100468.22
2022-08-28T03:10:35.162Z,100466.06
2022-08-28T03:13:04.657Z,100468.75
2022-08-28T03:15:34.344Z,100470.16
2022-08-28T03:18:07.903Z,100464.50
2022-08-28T03:20:37.745Z,100468.81
2022-08-28T03:23:21.945Z,100467.97
2022-08-28T03:25:54.043Z,100479.56
2022-08-28T03:28:23.488Z,100477.13
2022-08-28T03:30:53.304Z,100477.09
2022-08-28T03:33:22.820Z,100470.91
2022-08-28T03:35:52.376Z,100471.41
2022-08-28T03:38:22.267Z,100469.56
2022-08-28T03:40:57.610Z,100464.63
2022-08-28T03:43:27.430Z,100468.38
2022-08-28T03:45:58.231Z,100467.59
2022-08-28T03:48:28.577Z,100472.44
2022-08-28T03:50:58.085Z,100463.59
2022-08-28T03:53:29.109Z,100463.03
2022-08-28T03:56:00.906Z,100462.19
2022-08-28T03:58:30.536Z,100467.03
2022-08-28T04:01:00.396Z,100461.13
2022-08-28T04:03:30.036Z,100462.72
2022-08-28T04:05:59.509Z,100466.78
2022-08-28T04:08:29.371Z,100475.13
2022-08-28T04:11:01.722Z,100474.28
2022-08-28T04:13:32.173Z,100482.91
2022-08-28T04:16:02.589Z,100484.25
2022-08-28T04:18:36.069Z,100475.34
2022-08-28T04:21:08.007Z,100477.50
2022-08-28T04:23:38.343Z,100476.94
2022-08-28T04:26:10.466Z,100480.19
2022-08-28T04:28:39.997Z,100482.56
2022-08-28T04:31:10.391Z,100485.00
2022-08-28T04:33:39.935Z,100487.13
2022-08-28T04:36:11.184Z,100494.16
2022-08-28T04:38:43.932Z,100494.16
2022-08-28T04:41:18.855Z,100490.94
2022-08-28T04:43:48.663Z,100500.09
2022-08-28T04:46:18.240Z,100495.81
2022-08-28T04:48:47.724Z,100505.44
2022-08-28T04:51:17.694Z,100506.53
2022-08-28T04:53:47.202Z,100507.91
2022-08-28T04:56:22.090Z,100505.53
2022-08-28T04:58:51.540Z,100512.25
2022-08-28T05:01:24.307Z,100508.72
2022-08-28T05:03:57.617Z,100511.97
2022-08-28T05:06:28.806Z,100518.38
2022-08-28T05:08:58.895Z,100512.25
2022-08-28T05:11:34.156Z,100517.31
2022-08-28T05:14:04.639Z,100522.03
2022-08-28T05:16:34.812Z,100524.75
2022-08-28T05:19:04.517Z,100525.00
2022-08-28T05:21:33.963Z,100526.34
2022-08-28T05:24:03.409Z,100527.97
2022-08-28T05:26:35.476Z,100537.94
2022-08-28T05:29:08.466Z,100536.09
2022-08-28T05:31:39.115Z,100536.88
2022-08-28T05:34:10.397Z,100532.88
2022-08-28T05:36:40.418Z,100538.53
2022-08-28T05:39:12.049Z,100539.84
2022-08-28T05:41:45.870Z,100544.19
2022-08-28T05:44:16.636Z,100542.31
2022-08-28T05:46:48.112Z,100538.63
2022-08-28T05:49:17.911Z,100544.25
2022-08-28T05:51:47.490Z,100545.34
2022-08-28T05:54:17.630Z,100552.41
2022-08-28T05:56:49.633Z,100554.03
2022-08-28T05:59:19.183Z,100561.78
2022-08-28T06:01:49.868Z,100559.63
2022-08-28T06:04:23.562Z,100563.19
2022-08-28T06:06:53.126Z,100557.25
2022-08-28T06:09:28.736Z,100555.09
2022-08-28T06:12:03.727Z,100557.53
2022-08-28T06:14:33.505Z,100558.09
2022-08-28T06:17:04.034Z,100556.47
2022-08-28T06:19:37.240Z,100560.25
2022-08-28T06:22:09.724Z,100565.38
2022-08-28T06:24:39.793Z,100571.03
2022-08-28T06:27:11.794Z,100568.31
2022-08-28T06:29:41.479Z,100578.59
2022-08-28T06:32:10.964Z,100574.00
2022-08-28T06:34:40.409Z,100576.69
2022-08-28T06:37:10.313Z,100567.00
2022-08-28T06:39:39.933Z,100582.09
2022-08-28T06:42:11.954Z,100580.50
2022-08-28T06:44:41.404Z,100580.19
2022-08-28T06:47:11.189Z,100584.81
2022-08-28T06:49:41.537Z,100586.66
2022-08-28T06:52:10.939Z,100584.22
2022-08-28T06:54:40.361Z,100581.50
2022-08-28T06:57:17.812Z,100580.38
2022-08-28T06:59:47.678Z,100583.25
2022-08-28T07:02:17.197Z,100579.09
2022-08-28T07:04:46.729Z,100580.97
2022-08-28T07:07:31.046Z,100582.31
2022-08-28T07:10:01.769Z,100586.09
2022-08-28T07:12:33.756Z,100591.03
2022-08-28T07:15:04.162Z,100600.16
2022-08-28T07:17:41.751Z,100592.22
2022-08-28T07:20:12.497Z,100576.28
2022-08-28T07:22:42.715Z,100590.50
2022-08-28T07:25:12.690Z,100590.63
2022-08-28T07:27:44.695Z,100589.38
2022-08-28T07:30:15.012Z,100594.78
2022-08-28T07:32:49.170Z,100587.72
2022-08-28T07:35:19.156Z,100591.25
2022-08-28T07:37:49.123Z,100589.97
2022-08-28T07:40:20.237Z,100600.25
2022-08-28T07:43:04.784Z,100596.97
2022-08-28T07:45:34.688Z,100592.97
2022-08-28T07:48:11.441Z,100594.06
2022-08-28T07:50:41.455Z,100595.41
2022-08-28T07:53:11.145Z,100590.25
2022-08-28T07:55:40.588Z,100598.31
2022-08-28T07:58:12.876Z,100603.97
2022-08-28T08:00:42.452Z,100601.25
2022-08-28T08:03:11.939Z,100605.59
2022-08-28T08:05:41.432Z,100612.56
2022-08-28T08:08:10.850Z,100605.00
2022-08-28T08:10:40.294Z,100614.78
2022-08-28T08:13:14.205Z,100617.53
2022-08-28T08:15:43.726Z,100611.97
2022-08-28T08:18:13.680Z,100616.19
2022-08-28T08:20:43.256Z,100622.47
2022-08-28T08:23:12.664Z,100625.41
2022-08-28T08:25:42.137Z,100625.25
2022-08-28T08:28:15.673Z,100620.38
2022-08-28T08:30:45.241Z,100621.56
2022-08-28T08:33:14.734Z,100622.66
2022-08-28T08:35:44.436Z,100627.94
2022-08-28T08:38:14.024Z,100629.56
2022-08-28T08:40:43.646Z,100624.72
2022-08-28T08:43:16.069Z,100628.28
2022-08-28T08:45:45.759Z,100626.47
2022-08-28T08:48:15.352Z,100623.75
2022-08-28T08:50:44.948Z,100630.75
2022-08-28T08:53:24.220Z,100624.53
2022-08-28T08:55:54.356Z,100616.25
2022-08-28T08:58:28.333Z,100636.75
2022-08-28T09:01:01.372Z,100628.38
2022-08-28T09:03:44.126Z,100633.81
2022-08-28T09:06:18.744Z,100636.19
2022-08-28T09:08:50.289Z,100636.31
2022-08-28T09:11:26.421Z,100627.25
2022-08-28T09:14:02.666Z,100629.72
2022-08-28T09:16:33.812Z,100642.13
2022-08-28T09:19:03.216Z,100643.38
2022-08-28T09:21:33.736Z,100637.53
2022-08-28T09:24:05.860Z,100644.38
2022-08-28T09:26:40.369Z,100645.66
2022-08-28T09:29:29.443Z,100646.28
2022-08-28T09:31:58.900Z,100650.41
2022-08-28T09:34:35.460Z,100652.59
2022-08-28T09:37:08.353Z,100648.91
2022-08-28T09:39:38.548Z,100654.34
2022-08-28T09:42:29.893Z,100659.28
2022-08-28T09:45:09.060Z,100649.63
2022-08-28T09:47:48.787Z,100646.81
2022-08-28T09:50:23.556Z,100643.97
2022-08-28T09:52:53.160Z,100641.06
2022-08-28T09:55:24.496Z,100637.31
2022-08-28T09:57:54.442Z,100634.00
2022-08-28T10:00:26.621Z,100632.03
2022-08-28T10:02:58.717Z,100641.44
2022-08-28T10:05:36.217Z,100628.66
2022-08-28T10:08:08.094Z,100639.91
2022-08-28T10:10:39.420Z,100637.16
2022-08-28T10:13:11.879Z,100629.28
2022-08-28T10:15:55.506Z,100628.38
2022-08-28T10:18:34.119Z,100615.34
2022-08-28T10:21:07.025Z,100628.00
2022-08-28T10:23:41.497Z,100621.09
2022-08-28T10:26:21.490Z,100612.50
2022-08-28T10:28:56.623Z,100612.72
2022-08-28T10:31:32.839Z,100624.47
2022-08-28T10:34:12.197Z,100617.97
2022-08-28T10:36:41.654Z,100611.44
2022-08-28T10:39:18.759Z,100621.50
2022-08-28T10:41:49.529Z,100611.66
2022-08-28T10:44:20.750Z,100604.84
2022-08-28T10:46:55.616Z,100610.84
2022-08-28T10:49:27.616Z,100607.56
2022-08-28T10:51:58.028Z,100607.97
2022-08-28T10:54:31.200Z,100602.31
2022-08-28T10:57:02.900Z,100612.06
2022-08-28T10:59:42.065Z,100614.66
2022-08-28T11:02:14.579Z,100607.34
2022-08-28T11:04:44.044Z,100611.00
2022-08-28T11:07:15.428Z,100604.13
2022-08-28T11:09:47.799Z,100603.94
2022-08-28T11:12:39.088Z,100605.22
2022-08-28T11:15:38.543Z,100611.00
2022-08-28T11:18:37.928Z,100605.53
2022-08-28T11:21:09.790Z,100609.88
2022-08-28T11:23:41.164Z,100603.63
2022-08-28T11:26:12.445Z,100600.25
2022-08-28T11:28:47.439Z,100605.72
2022-08-28T11:31:38.062Z,100604.72
2022-08-28T11:34:10.117Z,100595.41
2022-08-28T11:37:04.409Z,100596.41
2022-08-28T11:39:33.878Z,100599.38
2022-08-28T11:42:32.878Z,100599.19
2022-08-28T11:45:02.715Z,100594.69
2022-08-28T11:47:52.142Z,100597.22
2022-08-28T11:50:27.309Z,100587.78
2022-08-28T11:53:22.224Z,100593.88
2022-08-28T11:56:31.024Z,100597.06
2022-08-28T11:59:07.968Z,100591.19
2022-08-28T12:01:40.357Z,100598.56
2022-08-28T12:04:12.346Z,100587.84
2022-08-28T12:06:52.003Z,100589.59
2022-08-28T12:09:40.416Z,100592.06
2022-08-28T12:12:28.754Z,100587.09
2022-08-28T12:15:02.184Z,100574.88
2022-08-28T12:17:43.840Z,100577.66
2022-08-28T12:20:14.522Z,100585.34
2022-08-28T12:22:48.011Z,100581.97
2022-08-28T12:25:24.661Z,100599.50
2022-08-28T12:27:54.340Z,100581.88
2022-08-28T12:30:32.092Z,100579.75
2022-08-28T12:33:06.186Z,100581.03
2022-08-28T12:35:35.656Z,100582.59
2022-08-28T12:38:09.339Z,100579.09
2022-08-28T12:40:51.182Z,100583.47
2022-08-28T12:43:31.093Z,100573.25
2022-08-28T12:46:01.611Z,100577.44
2022-08-28T12:48:31.713Z,100569.91
2022-08-28T12:51:03.417Z,100575.03
2022-08-28T12:53:42.739Z,100580.84
2022-08-28T12:56:13.131Z,100576.00
2022-08-28T12:58:43.057Z,100578.25
2022-08-28T13:01:13.653Z,100570.50
2022-08-28T13:03:51.505Z,100560.09
2022-08-28T13:06:26.243Z,100565.91
2022-08-28T13:09:02.507Z,100559.16
2022-08-28T13:11:32.516Z,100556.44
2022-08-28T13:14:02.214Z,100566.19
2022-08-28T13:16:39.866Z,100553.16
2022-08-28T13:19:24.065Z,100554.97
2022-08-28T13:21:58.587Z,100555.63
2022-08-28T13:24:41.113Z,100552.69
2022-08-28T13:27:19.057Z,100555.09
2022-08-28T13:30:05.428Z,100555.41
2022-08-28T13:32:36.157Z,100555.06
2022-08-28T13:35:09.924Z,100554.41
2022-08-28T13:37:47.748Z,100546.81
2022-08-28T13:43:12.074Z,100543.38
2022-08-28T13:45:44.285Z,100545.13
2022-08-28T13:48:14.497Z,100541.94
2022-08-28T13:50:46.879Z,100539.25
2022-08-28T13:53:16.976Z,100538.59
2022-08-28T13:55:50.351Z,100532.03
2022-08-28T13:58:20.018Z,100542.59
2022-08-28T14:00:51.103Z,100535.53
2022-08-28T14:03:33.292Z,100532.16
2022-08-28T14:06:02.875Z,100531.84
2022-08-28T14:08:32.347Z,100537.16
2022-08-28T14:11:04.436Z,100535.69
2022-08-28T14:13:33.969Z,100530.25
2022-08-28T14:16:06.689Z,100522.19
2022-08-28T14:18:36.225Z,100527.81
2022-08-28T14:21:07.616Z,100524.78
2022-08-28T14:23:37.087Z,100527.81
2022-08-28T14:26:09.559Z,100515.47
2022-08-28T14:28:38.989Z,100516.78
2022-08-28T14:31:13.693Z,100512.97
2022-08-28T14:33:45.253Z,100521.06
2022-08-28T14:36:17.960Z,100511.94
2022-08-28T14:38:47.376Z,100502.97
2022-08-28T14:41:19.781Z,100521.91
2022-08-28T14:43:49.668Z,100521.84
2022-08-28T14:46:19.483Z,100517.81
2022-08-28T14:48:48.990Z,100512.25
2022-08-28T14:51:18.529Z,100513.53
2022-08-28T14:53:47.962Z,100516.69
2022-08-28T14:56:20.072Z,100519.72
2022-08-28T14:58:49.488Z,100516.00
2022-08-28T15:01:26.048Z,100510.72
2022-08-28T15:04:09.865Z,100511.03
2022-08-28T15:06:39.454Z,100510.06
2022-08-28T15:09:08.893Z,100508.16
2022-08-28T15:11:41.176Z,100508.78
2022-08-28T15:14:10.614Z,100504.94
2022-08-28T15:16:43.072Z,100507.97
2022-08-28T15:19:13.233Z,100512.84
2022-08-28T15:21:44.535Z,100505.97
2022-08-28T15:24:13.968Z,100497.13
2022-08-28T15:26:46.910Z,100505.00
2022-08-28T15:29:16.588Z,100504.53
2022-08-28T15:31:48.073Z,100500.53
2022-08-28T15:34:18.661Z,100505.84
2022-08-28T15:36:52.847Z,100496.19
2022-08-28T15:39:37.944Z,100502.97
2022-08-28T15:42:10.412Z,100505.22
2022-08-28T15:44:39.853Z,100491.59
2022-08-28T15:47:09.860Z,100505.22
2022-08-28T15:49:48.648Z,100499.59
2022-08-28T15:52:19.882Z,100498.66
2022-08-28T15:54:49.599Z,100505.84
2022-08-28T15:57:21.617Z,100507.47
2022-08-28T15:59:51.365Z,100499.28
2022-08-28T16:02:21.634Z,100504.22
2022-08-28T16:04:51.189Z,100499.69
2022-08-28T16:07:20.736Z,100498.84
2022-08-28T16:09:50.236Z,100497.81
2022-08-28T16:12:22.953Z,100497.03
2022-08-28T16:14:52.673Z,100502.63
2022-08-28T16:17:22.108Z,100507.97
2022-08-28T16:19:51.508Z,100499.59
2022-08-28T16:22:20.936Z,100504.47
2022-08-28T16:24:50.781Z,100500.22
2022-08-28T16:27:22.788Z,100502.28
2022-08-28T16:29:52.753Z,100505.34
2022-08-28T16:32:23.037Z,100507.75
2022-08-28T16:34:52.809Z,100505.09
2022-08-28T16:37:23.202Z,100498.28
2022-08-28T16:39:56.050Z,100498.00
2022-08-28T16:42:32.664Z,100498.47
2022-08-28T16:45:03.513Z,100500.19
2022-08-28T16:47:33.080Z,100494.84
2022-08-28T16:50:02.861Z,100492.03
2022-08-28T16:52:32.294Z,100498.13
2022-08-28T16:55:02.414Z,100489.06
2022-08-28T16:57:34.437Z,100495.28
2022-08-28T17:00:03.881Z,100507.75
2022-08-28T17:02:33.965Z,100495.47
2022-08-28T17:05:05.440Z,100492.09
2022-08-28T17:07:35.042Z,100492.63
2022-08-28T17:10:04.534Z,100490.84
2022-08-28T17:12:36.701Z,100492.69
2022-08-28T17:15:06.888Z,100492.88
2022-08-28T17:17:36.370Z,100487.63
2022-08-28T17:20:07.819Z,100484.28
2022-08-28T17:22:34.773Z,100495.28
2022-08-28T17:25:04.557Z,100489.75
2022-08-28T17:27:36.831Z,100499.84
2022-08-28T17:30:07.200Z,100504.88
2022-08-28T17:32:37.030Z,100499.88
2022-08-28T17:35:07.101Z,100500.97
2022-08-28T17:37:36.530Z,100509.03
2022-08-28T17:40:06.539Z,100512.22
2022-08-28T17:42:38.892Z,100510.84
2022-08-28T17:45:11.337Z,100511.56
2022-08-28T17:47:40.537Z,100512.63
2022-08-28T17:50:11.027Z,100522.41
2022-08-28T17:52:40.604Z,100518.56
2022-08-28T17:55:10.757Z,100523.59
2022-08-28T17:57:42.769Z,100525.50
2022-08-28T18:00:16.171Z,100514.75
2022-08-28T18:02:46.308Z,100515.53
2022-08-28T18:05:16.737Z,100517.75
2022-08-28T18:07:46.197Z,100519.34
2022-08-28T18:10:15.680Z,100523.81
2022-08-28T18:12:47.853Z,100530.22
2022-08-28T18:15:17.468Z,100524.03
2022-08-28T18:17:50.470Z,100527.13
2022-08-28T18:20:20.217Z,100536.69
2022-08-28T18:22:49.742Z,100532.66
2022-08-28T18:25:31.490Z,100536.03
2022-08-28T18:28:03.575Z,100536.25
2022-08-28T18:30:32.995Z,100535.00
2022-08-28T18:33:02.521Z,100541.59
2022-08-28T18:35:32.462Z,100536.41
2022-08-28T18:38:02.007Z,100548.72
2022-08-28T18:40:31.563Z,100551.94
2022-08-28T18:43:03.749Z,100549.88
2022-08-28T18:45:34.157Z,100545.47
2022-08-28T18:48:03.918Z,100559.22
2022-08-28T18:50:33.616Z,100558.47
2022-08-28T18:53:03.723Z,100562.44
2022-08-28T18:55:33.421Z,100567.41
2022-08-28T18:58:05.464Z,100561.22
2022-08-28T19:00:36.680Z,100569.41
2022-08-28T19:03:06.327Z,100581.28
2022-08-28T19:05:35.886Z,100587.22
2022-08-28T19:08:05.422Z,100590.19
2022-08-28T19:10:35.354Z,100589.03
2022-08-28T19:13:07.652Z,100593.72
2022-08-28T19:15:37.378Z,100597.34
2022-08-28T19:18:07.230Z,100598.78
2022-08-28T19:20:36.800Z,100602.03
2022-08-28T19:23:06.254Z,100605.94
2022-08-28T19:25:35.957Z,100600.28
2022-08-28T19:28:08.040Z,100602.84
2022-08-28T19:30:37.608Z,100602.38
2022-08-28T19:33:07.490Z,100613.16
2022-08-28T19:35:36.953Z,100609.69
2022-08-28T19:38:06.360Z,100620.00
2022-08-28T19:40:38.823Z,100630.59
2022-08-28T19:43:12.645Z,100645.91
2022-08-28T19:45:46.792Z,100657.53
2022-08-28T19:48:16.245Z,100662.44
2022-08-28T19:50:45.669Z,100661.41
2022-08-28T19:53:15.449Z,100663.78
2022-08-28T19:55:44.859Z,100673.22
2022-08-28T19:58:16.875Z,100674.53
2022-08-28T20:00:46.313Z,100674.09
2022-08-28T20:03:16.312Z,100672.22
2022-08-28T20:05:48.601Z,100671.94
2022-08-28T20:08:19.805Z,100674.94
2022-08-28T20:10:49.282Z,100665.44
2022-08-28T20:13:21.308Z,100671.63
2022-08-28T20:15:51.724Z,100679.44
2022-08-28T20:18:23.931Z,100675.66
2022-08-28T20:20:53.792Z,100678.09
2022-08-28T20:23:23.957Z,100668.97
2022-08-28T20:25:53.555Z,100672.47
2022-08-28T20:28:25.572Z,100674.34
2022-08-28T20:30:55.056Z,100684.69
2022-08-28T20:33:24.536Z,100685.75
2022-08-28T20:36:02.263Z,100699.28
2022-08-28T20:38:32.375Z,100691.44
2022-08-28T20:41:06.504Z,100684.94
2022-08-28T20:43:38.798Z,100690.41
2022-08-28T20:46:08.595Z,100693.16
2022-08-28T20:48:38.182Z,100698.03
2022-08-28T20:51:07.888Z,100697.75
2022-08-28T20:53:38.115Z,100698.59
2022-08-28T20:56:09.930Z,100696.69
2022-08-28T20:58:41.971Z,100696.69
2022-08-28T21:01:11.441Z,100703.19
2022-08-28T21:03:41.014Z,100696.69
2022-08-28T21:06:10.700Z,100707.22
2022-08-28T21:08:40.173Z,100714.25
2022-08-28T21:11:09.647Z,100710.19
2022-08-28T21:13:41.698Z,100709.41
2022-08-28T21:16:11.821Z,100708.31
2022-08-28T21:18:53.838Z,100707.22
2022-08-28T21:21:31.171Z,100709.38
2022-08-28T21:24:01.803Z,100714.25
2022-08-28T21:26:31.232Z,100713.44
2022-08-28T21:29:03.281Z,100710.22
2022-08-28T21:31:32.692Z,100709.13
2022-08-28T21:34:03.497Z,100706.94
2022-08-28T21:36:33.054Z,100715.03
2022-08-28T21:39:02.511Z,100720.19
2022-08-28T21:41:32.023Z,100711.81
2022-08-28T21:44:04.046Z,100715.34
2022-08-28T21:46:33.516Z,100712.63
2022-08-28T21:49:03.047Z,100724.50
2022-08-28T21:51:32.505Z,100725.78
2022-08-28T21:54:02.008Z,100732.22
2022-08-28T21:56:31.465Z,100731.66
2022-08-28T21:59:01.198Z,100731.91
2022-08-28T22:01:33.322Z,100725.16
2022-08-28T22:04:02.870Z,100730.84
2022-08-28T22:06:32.416Z,100728.63
2022-08-28T22:09:02.310Z,100736.91
2022-08-28T22:11:31.737Z,100739.69
2022-08-28T22:14:01.176Z,100745.19
2022-08-28T22:16:33.233Z,100757.75
2022-08-28T22:19:03.886Z,100752.88
2022-08-28T22:21:45.923Z,100758.31
2022-08-28T22:24:16.065Z,100766.00
2022-08-28T22:26:46.006Z,100762.25
2022-08-28T22:29:15.461Z,100760.13
2022-08-28T22:31:47.714Z,100769.88
2022-08-28T22:34:17.544Z,100768.09
2022-08-28T22:36:47.087Z,100766.00
2022-08-28T22:39:16.561Z,100772.94
2022-08-28T22:41:46.161Z,100764.66
2022-08-28T22:44:15.604Z,100771.41
2022-08-28T22:46:47.620Z,100766.06
2022-08-28T22:49:17.077Z,100762.78
2022-08-28T22:51:46.558Z,100768.97
2022-08-28T22:54:16.160Z,100765.25
2022-08-28T22:56:45.635Z,100761.50
2022-08-28T22:59:15.078Z,100766.06
2022-08-28T23:01:47.097Z,100765.28
2022-08-28T23:04:16.573Z,100768.75
2022-08-28T23:06:46.044Z,100770.88
2022-08-28T23:09:15.478Z,100769.28
2022-08-28T23:11:44.912Z,100770.03
2022-08-28T23:14:14.893Z,100766.03
2022-08-28T23:16:46.964Z,100767.59
2022-08-28T23:19:18.931Z,100767.56
2022-08-28T23:21:48.592Z,100762.09
2022-08-28T23:24:18.285Z,100766.94
2022-08-28T23:26:47.881Z,100766.09
2022-08-28T23:29:17.533Z,100762.06
2022-08-28T23:31:49.680Z,100764.19
2022-08-28T23:34:19.165Z,100766.38
2022-08-28T23:36:48.620Z,100752.66
2022-08-28T23:39:18.129Z,100755.41
2022-08-28T23:41:47.542Z,100752.31
2022-08-28T23:44:17.073Z,100755.19
2022-08-28T23:46:49.185Z,100748.66
2022-08-28T23:49:21.594Z,100743.53
2022-08-28T23:51:54.341Z,100741.59
2022-08-28T23:54:23.795Z,100743.25
2022-08-28T23:56:54.196Z,100735.34
2022-08-28T23:59:24.862Z,100741.16
